GCC Virtual Airport Information Service

Sydney Kingsford Smith International Airport

ICAO: YSSY Country: AU
Latitude: -33.9461 Longitude: 151.177
Latest Arrival : UAE412 (B) (OMDB-YSSY) Latest Departure : CH1723 (YSSY-PANC)


WX CaptureLIVE
Data provided by noaa.gov | Fetched at 14:02:39

METAR : YSSY 051330Z 18013KT 9999 FEW032 BKN035 20/14 Q1011

TAF : YSSY 051102Z 0512/0618 18014KT 9999 -SHRA SCT025 BKN040 FM060300 16012KT 9999 NSW SCT040 FM061200 19007KT 9999 FEW025 BKN040


Runway Data for YSSY
Data provided by openaviationdata.com

Runway ID Mag Var Hdg Length Elevation Surface ILS Freq ILS Id ILS Slope
7 13 61° 8292 ft 21 ft Asphalt 109.9 ISY 3
16L 13 154° 8011 ft 21 ft Asphalt 110.9 ISS 3
16R 13 154° 13022 ft 21 ft Asphalt 109.5 IKS 3
25 13 241° 8292 ft 21 ft Asphalt 109.7 ISW 3
34L 13 334° 13022 ft 21 ft Asphalt 110.1 ISN 3
34R 13 334° 8011 ft 21 ft Asphalt 109.3 IKN 3

Sydney Kingsford Smith International Airport, AU
Use only for reference purposes



Not for navigational purposes.